Terminal Aerodrome Forecast
Issued by NWS

Home | Current Version | Previous Version | Text Only | Print | Product List | Glossary On
Versions: 1 2 3 4 5 6 7 8 9 10 11 12
000
FTUS45 KRIW 280522
TAFCOD
TAF
KCOD 280522Z 2806/2906 34009KT P6SM VCSH SCT040 BKN060
     FM280900 35014KT P6SM -RA SCT020 BKN040
      TEMPO 2812/2816 5SM -RA BKN030
     FM281900 35015G25KT P6SM VCSH BKN040
     FM282200 36012KT P6SM SCT040
     FM290200 33007KT P6SM FEW050
      AMD LTD TO CLD VIS AND WIND=

USA.gov is the U.S. government's official web portal to all federal, state and local government web resources and services.